Time;durP1;ratioP1;P1;durP2;ratioP2;P2;SDS_P1;SDS_P2;PMS_P1;PMS_P2;Temp;Humidity;BMP_temperature;BMP_pressure;BME280_temperature;BME280_humidity;BME280_pressure;Samples;Min_cycle;Max_cycle;Signal;HPM_P1;HPM_P2
2021/06/29 00:00:27;;;;;;;21.37;15.50;;;17.50;99.90;;;;;;5049604;28;20487;-66
2021/06/29 00:03:01;;;;;;;18.73;14.33;;;17.50;99.90;;;;;;5050016;28;20439;-65
2021/06/29 00:05:29;;;;;;;17.50;14.60;;;17.50;99.90;;;;;;5050084;28;20463;-66
2021/06/29 00:07:56;;;;;;;19.00;13.17;;;17.50;99.90;;;;;;5049658;28;20822;-65
2021/06/29 00:10:23;;;;;;;20.17;14.70;;;17.50;99.90;;;;;;5049262;28;20471;-64
2021/06/29 00:12:50;;;;;;;19.27;14.27;;;17.50;99.90;;;;;;5049944;28;20452;-65
2021/06/29 00:15:16;;;;;;;17.67;14.47;;;17.50;99.90;;;;;;5050058;28;20452;-64
2021/06/29 00:17:45;;;;;;;20.43;16.40;;;17.50;99.90;;;;;;5049641;28;20451;-67
2021/06/29 00:20:13;;;;;;;19.60;15.30;;;17.50;99.90;;;;;;5048940;28;20486;-65
2021/06/29 00:22:40;;;;;;;23.37;17.70;;;17.50;99.90;;;;;;5050174;28;20447;-65
2021/06/29 00:25:08;;;;;;;22.80;16.50;;;17.50;99.90;;;;;;5049757;28;20459;-66
2021/06/29 00:27:35;;;;;;;20.60;14.77;;;17.50;99.90;;;;;;5049399;28;20451;-67
2021/06/29 00:30:01;;;;;;;17.33;14.13;;;17.50;99.90;;;;;;5048969;28;20472;-67
2021/06/29 00:32:28;;;;;;;13.60;12.13;;;17.50;99.90;;;;;;5049784;28;20467;-65
2021/06/29 00:34:57;;;;;;;14.57;12.20;;;17.50;99.90;;;;;;5049583;28;20456;-64
2021/06/29 00:37:24;;;;;;;15.43;12.53;;;17.40;99.90;;;;;;5049616;28;20443;-66
2021/06/29 00:39:50;;;;;;;13.33;11.80;;;17.40;99.90;;;;;;5048671;28;20482;-65
2021/06/29 00:42:17;;;;;;;14.07;11.43;;;17.40;99.90;;;;;;5049659;28;20458;-64
2021/06/29 00:44:46;;;;;;;13.70;11.17;;;17.40;99.90;;;;;;5049199;28;20834;-65
2021/06/29 00:47:14;;;;;;;13.47;11.83;;;17.30;99.90;;;;;;5048958;28;20459;-65
2021/06/29 00:49:42;;;;;;;12.17;10.90;;;17.40;99.90;;;;;;5048957;28;20478;-65
2021/06/29 00:52:12;;;;;;;13.07;11.20;;;17.30;99.90;;;;;;5049485;28;20535;-66
2021/06/29 00:54:39;;;;;;;14.00;12.50;;;17.30;99.90;;;;;;5050018;28;20874;-66
2021/06/29 00:57:08;;;;;;;13.53;10.43;;;17.30;99.90;;;;;;5049268;28;20859;-67
2021/06/29 00:59:35;;;;;;;13.53;11.33;;;17.30;99.90;;;;;;5048751;28;20474;-66
2021/06/29 01:02:02;;;;;;;13.30;11.10;;;17.40;99.90;;;;;;5049597;28;21341;-65
2021/06/29 01:04:29;;;;;;;13.20;10.80;;;17.40;99.90;;;;;;5049637;28;20534;-65
2021/06/29 01:06:56;;;;;;;13.27;11.87;;;17.30;99.90;;;;;;5049534;28;20451;-65
2021/06/29 01:09:25;;;;;;;12.00;10.80;;;17.30;99.90;;;;;;5048486;28;20558;-68
2021/06/29 01:11:52;;;;;;;11.93;10.73;;;17.40;99.90;;;;;;5049524;28;20454;-66
2021/06/29 01:14:19;;;;;;;12.83;11.43;;;17.40;99.90;;;;;;5047830;28;20801;-65
2021/06/29 01:16:47;;;;;;;16.23;10.50;;;17.40;99.90;;;;;;5049013;28;20988;-66
2021/06/29 01:19:18;;;;;;;16.33;11.10;;;17.40;99.90;;;;;;5048182;28;20542;-64
2021/06/29 01:21:49;;;;;;;13.70;12.10;;;17.40;99.90;;;;;;5048616;28;20488;-66
2021/06/29 01:24:22;;;;;;;12.23;10.63;;;17.40;99.90;;;;;;5049073;28;20934;-66
2021/06/29 01:26:55;;;;;;;12.63;11.33;;;17.40;99.90;;;;;;5048755;28;20448;-65
2021/06/29 01:29:34;;;;;;;11.63;9.87;;;17.40;99.90;;;;;;5048632;28;20503;-65
2021/06/29 01:31:59;;;;;;;12.90;10.80;;;17.50;99.90;;;;;;5049164;28;20439;-65
2021/06/29 01:34:26;;;;;;;13.67;10.77;;;17.30;99.90;;;;;;5049268;28;20451;-64
2021/06/29 01:36:54;;;;;;;11.70;9.93;;;17.20;99.90;;;;;;5048944;28;20292;-64
2021/06/29 01:39:21;;;;;;;12.60;9.83;;;17.20;99.90;;;;;;5048504;28;20555;-64
2021/06/29 01:41:48;;;;;;;10.87;9.60;;;17.30;99.90;;;;;;5049157;28;20567;-66
2021/06/29 01:44:21;;;;;;;11.53;9.70;;;17.30;99.90;;;;;;5049353;28;20446;-65
2021/06/29 01:46:51;;;;;;;11.23;8.67;;;17.30;99.90;;;;;;5048729;28;20442;-63
2021/06/29 01:49:23;;;;;;;10.47;8.60;;;17.20;99.90;;;;;;5048082;28;20460;-66
2021/06/29 01:51:50;;;;;;;15.00;10.30;;;17.20;99.90;;;;;;5049305;28;20640;-65
2021/06/29 01:54:18;;;;;;;12.07;9.90;;;17.20;99.90;;;;;;5049199;28;20451;-67
2021/06/29 01:56:46;;;;;;;11.33;8.10;;;17.20;99.90;;;;;;5049483;28;21055;-65
2021/06/29 01:59:15;;;;;;;9.57;8.57;;;17.20;99.90;;;;;;5051722;28;20455;-66
2021/06/29 02:01:43;;;;;;;13.63;8.73;;;17.20;99.90;;;;;;5052254;28;20486;-66
2021/06/29 02:04:11;;;;;;;12.23;8.40;;;17.20;99.90;;;;;;5052112;28;20456;-65
2021/06/29 02:06:38;;;;;;;9.80;8.80;;;17.20;99.90;;;;;;5051965;28;20448;-66
2021/06/29 02:09:07;;;;;;;9.47;8.47;;;17.20;99.90;;;;;;5051392;28;20454;-64
2021/06/29 02:11:36;;;;;;;9.60;8.60;;;17.20;99.90;;;;;;5052277;28;20443;-65
2021/06/29 02:14:03;;;;;;;9.37;7.63;;;17.20;99.90;;;;;;5052397;28;20452;-65
2021/06/29 02:16:31;;;;;;;8.90;7.50;;;17.20;99.90;;;;;;5051753;28;21040;-66
2021/06/29 02:18:58;;;;;;;10.20;7.90;;;17.20;99.90;;;;;;5051266;28;20451;-62
2021/06/29 02:21:25;;;;;;;8.60;7.00;;;17.20;99.90;;;;;;5051985;28;20938;-65
2021/06/29 02:23:52;;;;;;;8.77;7.87;;;17.10;99.90;;;;;;5052380;28;20841;-63
2021/06/29 02:26:19;;;;;;;11.13;9.17;;;17.20;99.90;;;;;;5051369;28;20463;-66
2021/06/29 02:28:48;;;;;;;9.70;8.57;;;17.20;99.90;;;;;;5051951;28;21204;-64
2021/06/29 02:31:14;;;;;;;10.37;8.53;;;17.20;99.90;;;;;;5051215;28;20468;-67
2021/06/29 02:33:41;;;;;;;10.60;9.50;;;17.20;99.90;;;;;;5052563;28;20479;-64
2021/06/29 02:36:08;;;;;;;10.47;9.47;;;17.20;99.90;;;;;;5051378;28;20547;-66
2021/06/29 02:38:36;;;;;;;11.97;9.00;;;17.20;99.90;;;;;;5051985;28;20811;-65
2021/06/29 02:41:03;;;;;;;10.60;9.60;;;17.20;99.90;;;;;;5050578;28;20495;-65
2021/06/29 02:43:30;;;;;;;10.93;9.83;;;17.20;99.90;;;;;;5051842;28;20452;-65
2021/06/29 02:45:59;;;;;;;11.80;9.07;;;17.20;99.90;;;;;;5051361;28;20539;-65
2021/06/29 02:48:25;;;;;;;11.07;8.93;;;17.10;99.90;;;;;;5051261;28;20830;-65
2021/06/29 02:50:52;;;;;;;10.80;9.70;;;17.10;99.90;;;;;;5050943;28;20542;-64
2021/06/29 02:53:19;;;;;;;12.00;10.80;;;17.20;99.90;;;;;;5049544;28;20552;-65
2021/06/29 02:55:46;;;;;;;13.70;9.60;;;17.10;99.90;;;;;;5050707;28;20538;-65
2021/06/29 02:58:13;;;;;;;10.77;8.97;;;17.20;99.90;;;;;;5050937;28;20689;-64
2021/06/29 03:00:40;;;;;;;11.27;10.07;;;17.20;99.90;;;;;;5050547;28;20903;-67
2021/06/29 03:03:08;;;;;;;16.33;11.10;;;17.20;99.90;;;;;;5051711;28;20530;-64
2021/06/29 03:05:35;;;;;;;11.80;9.47;;;17.30;99.90;;;;;;5051756;28;20542;-64
2021/06/29 03:08:02;;;;;;;11.20;10.00;;;17.30;99.90;;;;;;5050703;28;20535;-64
2021/06/29 03:10:28;;;;;;;9.80;8.80;;;17.30;99.90;;;;;;5049959;28;20474;-65
2021/06/29 03:12:55;;;;;;;10.70;9.00;;;17.30;99.90;;;;;;5051266;28;20448;-65
2021/06/29 03:15:22;;;;;;;11.20;8.10;;;17.20;99.90;;;;;;5051103;28;20547;-65
2021/06/29 03:17:50;;;;;;;12.50;8.53;;;17.20;99.90;;;;;;5050802;28;20443;-65
2021/06/29 03:20:19;;;;;;;10.97;8.87;;;17.20;99.90;;;;;;5049767;28;20558;-64
2021/06/29 03:22:46;;;;;;;11.10;9.40;;;17.20;99.90;;;;;;5050660;28;20479;-65
2021/06/29 03:25:13;;;;;;;11.93;9.27;;;17.10;99.90;;;;;;5050573;28;20470;-64
2021/06/29 03:27:41;;;;;;;10.43;9.40;;;17.10;99.90;;;;;;5050614;28;20558;-64
2021/06/29 03:30:09;;;;;;;10.93;9.67;;;17.10;99.90;;;;;;5050155;28;20466;-64
2021/06/29 03:32:36;;;;;;;12.90;9.97;;;17.20;99.90;;;;;;5050375;28;20442;-63
2021/06/29 03:35:07;;;;;;;14.90;9.30;;;17.10;99.90;;;;;;5050549;28;20466;-66
2021/06/29 03:37:36;;;;;;;14.00;10.90;;;17.10;99.90;;;;;;5050203;28;20432;-66
2021/06/29 03:40:04;;;;;;;11.80;10.50;;;17.10;99.90;;;;;;5049610;28;20483;-65
2021/06/29 03:42:31;;;;;;;11.20;9.67;;;17.10;99.90;;;;;;5050342;28;20491;-65
2021/06/29 03:44:58;;;;;;;12.73;11.20;;;17.10;99.90;;;;;;5050593;28;20446;-64
2021/06/29 03:47:25;;;;;;;10.20;9.20;;;17.10;99.90;;;;;;5050154;28;20458;-66
2021/06/29 03:49:52;;;;;;;11.63;9.70;;;17.20;99.90;;;;;;5049368;28;21052;-65
2021/06/29 03:52:19;;;;;;;12.53;10.07;;;17.20;99.90;;;;;;5050154;28;20443;-65
2021/06/29 03:54:47;;;;;;;19.70;12.03;;;17.20;99.90;;;;;;5050286;28;20454;-65
2021/06/29 03:57:14;;;;;;;11.20;9.53;;;17.20;99.90;;;;;;5049703;28;20474;-65
2021/06/29 03:59:41;;;;;;;12.60;11.27;;;17.20;99.90;;;;;;5049342;28;20470;-65
2021/06/29 04:02:07;;;;;;;10.80;9.03;;;17.20;99.90;;;;;;5049750;28;20503;-66
2021/06/29 04:04:34;;;;;;;10.53;9.43;;;17.20;99.90;;;;;;5049698;28;20444;-66
2021/06/29 04:07:03;;;;;;;11.20;9.10;;;17.30;99.90;;;;;;5049528;28;21123;-65
2021/06/29 04:09:30;;;;;;;10.73;9.20;;;17.20;99.90;;;;;;5048421;28;20525;-63
2021/06/29 04:11:58;;;;;;;12.70;9.73;;;17.20;99.90;;;;;;5031625;28;20536;-64
2021/06/29 04:14:25;;;;;;;13.13;10.47;;;17.20;99.90;;;;;;5029908;28;20488;-65
2021/06/29 04:16:52;;;;;;;11.30;9.07;;;17.20;99.90;;;;;;5029396;28;20524;-65
2021/06/29 04:19:19;;;;;;;11.10;8.87;;;17.20;99.90;;;;;;5028140;28;20997;-65
2021/06/29 04:21:46;;;;;;;9.53;8.47;;;17.30;99.90;;;;;;5030092;28;20481;-66
2021/06/29 04:24:13;;;;;;;11.43;8.30;;;17.30;99.90;;;;;;5030062;28;21018;-65
2021/06/29 04:26:39;;;;;;;9.40;8.20;;;17.30;99.90;;;;;;5047656;28;20540;-65
2021/06/29 04:29:08;;;;;;;11.60;9.77;;;17.30;99.90;;;;;;5048954;28;20448;-65
2021/06/29 04:31:35;;;;;;;8.20;7.40;;;17.30;99.90;;;;;;5049882;28;20439;-65
2021/06/29 04:34:02;;;;;;;10.00;8.97;;;17.20;99.90;;;;;;5049773;28;20950;-67
2021/06/29 04:36:29;;;;;;;9.43;8.43;;;17.20;99.90;;;;;;5049617;28;20452;-67
2021/06/29 04:38:56;;;;;;;10.97;8.53;;;17.10;99.90;;;;;;5048990;28;20475;-69
2021/06/29 04:41:23;;;;;;;9.87;8.20;;;17.10;99.90;;;;;;5041599;28;20898;-70
2021/06/29 04:43:50;;;;;;;9.97;8.40;;;17.00;99.90;;;;;;5049242;28;20440;-66
2021/06/29 04:46:18;;;;;;;10.47;9.37;;;17.00;99.90;;;;;;5049200;28;20825;-65
2021/06/29 04:48:46;;;;;;;13.70;9.37;;;17.00;99.90;;;;;;5049472;28;20452;-64
2021/06/29 04:51:13;;;;;;;12.03;8.97;;;17.10;99.90;;;;;;5048779;28;20460;-63
2021/06/29 04:53:40;;;;;;;11.33;8.77;;;17.10;99.90;;;;;;5049805;28;20455;-62
2021/06/29 04:56:16;;;;;;;14.83;9.43;;;17.00;99.90;;;;;;5049300;28;20530;-66
2021/06/29 04:58:44;;;;;;;13.17;9.23;;;17.00;99.90;;;;;;5049649;28;20493;-65
2021/06/29 05:01:11;;;;;;;10.90;8.90;;;17.00;99.90;;;;;;5034760;28;20464;-64
2021/06/29 05:03:40;;;;;;;11.60;8.73;;;17.10;99.90;;;;;;5048214;28;20440;-61
2021/06/29 05:06:06;;;;;;;10.33;9.00;;;17.10;99.90;;;;;;5048940;28;20527;-64
2021/06/29 05:08:33;;;;;;;13.87;9.97;;;17.10;99.90;;;;;;5049395;28;20523;-66
2021/06/29 05:11:00;;;;;;;11.10;9.90;;;17.10;99.90;;;;;;5048323;28;20973;-65
2021/06/29 05:13:27;;;;;;;14.20;10.37;;;17.20;99.90;;;;;;5048012;28;20467;-64
2021/06/29 05:15:54;;;;;;;10.37;9.27;;;17.30;99.90;;;;;;5047967;28;20531;-64
2021/06/29 05:18:21;;;;;;;10.97;9.83;;;17.40;99.90;;;;;;5047992;28;20519;-60
2021/06/29 05:20:49;;;;;;;13.33;11.13;;;17.30;99.90;;;;;;5047723;28;20460;-63
2021/06/29 05:23:16;;;;;;;12.10;10.23;;;17.40;99.90;;;;;;5048140;28;20475;-65
2021/06/29 05:25:43;;;;;;;12.33;9.40;;;17.40;99.90;;;;;;5048117;28;20517;-64
2021/06/29 05:28:10;;;;;;;11.60;9.07;;;17.50;99.90;;;;;;5048816;28;20547;-65
2021/06/29 05:30:37;;;;;;;11.00;9.80;;;17.50;99.90;;;;;;5049380;28;20545;-64
2021/06/29 05:33:04;;;;;;;11.53;9.90;;;17.40;99.90;;;;;;5053307;28;20479;-64
2021/06/29 05:35:31;;;;;;;11.67;10.00;;;17.40;99.90;;;;;;5053113;28;20522;-63
2021/06/29 05:38:00;;;;;;;12.63;10.20;;;17.40;99.90;;;;;;5052738;28;20542;-63
2021/06/29 05:40:27;;;;;;;14.63;10.00;;;17.40;99.90;;;;;;5051789;28;20559;-64
2021/06/29 05:42:54;;;;;;;11.67;10.13;;;17.40;99.90;;;;;;5052952;28;20566;-64
2021/06/29 05:45:21;;;;;;;15.00;10.37;;;17.40;99.90;;;;;;5052644;28;20446;-66
2021/06/29 05:47:48;;;;;;;14.10;10.90;;;17.50;99.90;;;;;;5052218;28;20436;-64
2021/06/29 05:50:15;;;;;;;13.53;12.13;;;17.70;99.90;;;;;;5051887;28;20456;-64
2021/06/29 05:52:42;;;;;;;11.17;10.03;;;17.60;99.90;;;;;;5052828;28;20432;-63
2021/06/29 05:55:11;;;;;;;12.90;10.70;;;17.70;99.90;;;;;;5052303;28;20535;-64
2021/06/29 05:57:38;;;;;;;10.70;9.60;;;17.70;99.90;;;;;;5051957;28;20934;-63
2021/06/29 06:00:08;;;;;;;13.03;10.90;;;17.60;99.90;;;;;;5051654;28;20456;-64
2021/06/29 06:02:34;;;;;;;12.27;10.97;;;17.70;99.90;;;;;;5052307;28;20575;-65
2021/06/29 06:05:01;;;;;;;11.10;9.93;;;17.70;99.90;;;;;;5052373;28;20539;-64
2021/06/29 06:07:28;;;;;;;12.47;10.03;;;17.80;99.90;;;;;;5051942;28;20444;-64
2021/06/29 06:09:55;;;;;;;13.00;10.53;;;17.80;99.90;;;;;;5051220;28;20468;-65
2021/06/29 06:12:23;;;;;;;19.37;10.93;;;17.90;99.90;;;;;;5052125;28;20532;-63
2021/06/29 06:14:50;;;;;;;13.00;10.77;;;18.00;99.90;;;;;;5052428;28;20480;-64
2021/06/29 06:17:17;;;;;;;12.00;10.80;;;18.10;99.90;;;;;;5051835;28;20432;-65
2021/06/29 06:19:44;;;;;;;12.63;10.20;;;18.20;99.90;;;;;;5051259;28;20460;-66
2021/06/29 06:22:10;;;;;;;11.10;10.00;;;18.30;99.90;;;;;;5051967;28;20490;-65
2021/06/29 06:24:37;;;;;;;11.20;10.10;;;18.50;99.90;;;;;;5052229;28;20764;-64
2021/06/29 06:27:07;;;;;;;11.17;9.63;;;18.60;99.90;;;;;;5051383;28;20535;-65
2021/06/29 06:29:36;;;;;;;11.60;9.47;;;18.70;99.90;;;;;;5049208;28;20982;-64
2021/06/29 06:32:03;;;;;;;12.87;9.43;;;19.00;99.90;;;;;;5042910;28;20439;-64
2021/06/29 06:34:29;;;;;;;10.70;8.40;;;19.20;99.90;;;;;;5050908;28;20450;-66
2021/06/29 06:36:56;;;;;;;9.50;7.93;;;19.30;99.90;;;;;;5050168;28;20828;-65
2021/06/29 06:39:23;;;;;;;12.00;8.30;;;19.50;99.90;;;;;;5049652;28;20471;-64
2021/06/29 06:41:50;;;;;;;10.80;8.47;;;19.80;99.90;;;;;;5050406;28;20548;-64
2021/06/29 06:44:17;;;;;;;9.10;8.20;;;20.10;99.90;;;;;;5050845;28;20558;-64
2021/06/29 06:46:45;;;;;;;7.67;6.87;;;20.30;99.90;;;;;;5050440;28;20448;-65
2021/06/29 06:49:12;;;;;;;9.27;8.37;;;20.40;99.90;;;;;;5049963;28;20874;-66
2021/06/29 06:51:39;;;;;;;8.00;6.37;;;20.50;99.90;;;;;;5051109;28;20446;-64
2021/06/29 06:54:06;;;;;;;8.43;7.63;;;20.60;99.90;;;;;;5050745;28;20443;-66
2021/06/29 06:56:33;;;;;;;8.13;6.83;;;20.50;99.90;;;;;;5050017;28;20448;-64
2021/06/29 06:59:00;;;;;;;8.80;7.23;;;20.50;99.90;;;;;;5049638;28;20523;-64
2021/06/29 07:01:26;;;;;;;8.23;7.10;;;20.20;99.90;;;;;;5050139;28;20476;-64
2021/06/29 07:03:55;;;;;;;7.03;6.33;;;20.20;99.90;;;;;;5050034;28;21091;-64
2021/06/29 07:06:22;;;;;;;8.00;6.80;;;20.10;99.90;;;;;;5049830;28;20547;-64
2021/06/29 07:08:49;;;;;;;7.20;6.50;;;20.00;99.90;;;;;;5050039;28;20946;-64
2021/06/29 07:11:16;;;;;;;14.20;7.30;;;20.00;99.90;;;;;;5049429;28;20559;-63
2021/06/29 07:13:43;;;;;;;5.27;4.77;;;20.00;99.90;;;;;;5050317;28;20958;-64
2021/06/29 07:16:10;;;;;;;5.60;4.90;;;20.00;99.90;;;;;;5046633;28;20456;-64
2021/06/29 07:18:36;;;;;;;8.40;4.90;;;19.90;99.90;;;;;;5050564;28;20444;-65
2021/06/29 07:21:06;;;;;;;6.40;5.03;;;19.70;99.90;;;;;;5069305;28;20473;-65
2021/06/29 07:23:33;;;;;;;6.87;6.27;;;19.70;99.90;;;;;;5069839;28;20483;-66
2021/06/29 07:26:00;;;;;;;7.00;5.80;;;19.80;99.90;;;;;;5069331;28;20944;-64
2021/06/29 07:28:27;;;;;;;6.77;5.57;;;19.70;99.90;;;;;;5067131;28;20447;-64
2021/06/29 07:30:53;;;;;;;6.17;5.57;;;19.80;99.90;;;;;;5048965;28;20556;-64
2021/06/29 07:33:20;;;;;;;6.23;5.63;;;19.90;99.90;;;;;;5049644;28;21023;-63
2021/06/29 07:35:47;;;;;;;7.70;6.57;;;19.90;99.90;;;;;;5050078;28;20451;-65
2021/06/29 07:38:15;;;;;;;6.40;5.47;;;20.00;99.90;;;;;;5049762;28;20454;-66
2021/06/29 07:40:42;;;;;;;6.93;5.37;;;20.10;99.90;;;;;;5048192;28;20479;-65
2021/06/29 07:43:09;;;;;;;6.67;6.07;;;20.10;99.90;;;;;;5049475;28;21098;-67
2021/06/29 07:45:36;;;;;;;7.57;5.10;;;20.10;99.90;;;;;;5049406;28;21173;-65
2021/06/29 07:48:04;;;;;;;5.50;4.77;;;20.10;99.90;;;;;;5049198;28;20539;-65
2021/06/29 07:50:32;;;;;;;4.87;4.37;;;20.20;99.90;;;;;;5047750;28;20474;-64
2021/06/29 07:53:01;;;;;;;5.97;5.10;;;20.30;99.90;;;;;;5041227;28;20448;-65
2021/06/29 07:55:29;;;;;;;5.33;4.70;;;20.30;99.90;;;;;;5048877;28;20969;-65
2021/06/29 07:57:57;;;;;;;8.03;4.83;;;20.30;99.90;;;;;;5048891;28;20471;-65
2021/06/29 08:00:24;;;;;;;6.07;5.47;;;20.40;99.90;;;;;;5048321;28;20472;-65
2021/06/29 08:02:51;;;;;;;6.63;4.67;;;20.50;99.90;;;;;;5049039;28;20479;-65
2021/06/29 08:05:18;;;;;;;6.57;4.80;;;20.70;99.90;;;;;;5049533;28;20451;-64
2021/06/29 08:07:45;;;;;;;9.03;4.40;;;20.80;99.90;;;;;;5049156;28;20444;-64
2021/06/29 08:10:12;;;;;;;5.67;3.83;;;20.80;99.90;;;;;;5048714;28;20583;-62
2021/06/29 08:12:41;;;;;;;5.23;4.20;;;20.90;99.90;;;;;;5049206;28;20448;-66
2021/06/29 08:15:10;;;;;;;4.87;4.00;;;21.00;99.90;;;;;;5049724;28;20455;-65
2021/06/29 08:17:37;;;;;;;6.20;3.80;;;21.20;99.90;;;;;;5048624;28;20551;-64
2021/06/29 08:20:05;;;;;;;4.97;3.30;;;21.20;99.90;;;;;;5048284;28;20474;-64
2021/06/29 08:22:32;;;;;;;4.03;3.07;;;21.30;99.90;;;;;;5048659;28;20566;-68
2021/06/29 08:25:00;;;;;;;5.40;3.10;;;21.30;99.90;;;;;;5048998;28;20448;-64
2021/06/29 08:27:27;;;;;;;8.20;2.93;;;21.40;99.90;;;;;;5048910;28;20478;-64
2021/06/29 08:29:57;;;;;;;4.57;3.00;;;21.50;99.90;;;;;;5048025;28;20526;-65
2021/06/29 08:32:24;;;;;;;4.67;2.77;;;21.60;99.90;;;;;;5049370;28;20502;-64
2021/06/29 08:34:51;;;;;;;6.13;3.30;;;21.80;99.90;;;;;;5049456;28;20542;-67
2021/06/29 08:37:18;;;;;;;4.53;2.90;;;21.80;99.90;;;;;;5049416;28;20432;-65
2021/06/29 08:39:45;;;;;;;4.87;2.93;;;21.90;99.90;;;;;;5048457;28;20490;-67
2021/06/29 08:42:13;;;;;;;7.53;3.00;;;22.10;99.90;;;;;;5049824;28;20479;-65
2021/06/29 08:44:40;;;;;;;3.60;2.77;;;22.20;99.90;;;;;;5049044;28;20873;-65
2021/06/29 08:47:09;;;;;;;3.33;2.67;;;22.40;99.90;;;;;;5049411;28;20822;-66
2021/06/29 08:49:36;;;;;;;5.67;3.13;;;22.60;99.90;;;;;;5049092;28;20881;-65
2021/06/29 08:52:05;;;;;;;4.63;2.50;;;22.90;99.90;;;;;;5050128;28;20542;-66
2021/06/29 08:54:32;;;;;;;3.23;2.33;;;23.20;99.90;;;;;;5050101;28;20467;-65
2021/06/29 08:56:59;;;;;;;3.60;2.47;;;23.40;99.90;;;;;;5049198;28;20555;-67
2021/06/29 08:59:26;;;;;;;4.60;2.00;;;23.70;99.90;;;;;;5048716;28;20502;-65
2021/06/29 09:01:53;;;;;;;2.60;1.93;;;24.00;99.90;;;;;;5049767;28;20455;-65
2021/06/29 09:04:49;;;;;;;2.90;2.03;;;24.20;99.90;;;;;;5049539;28;20498;-65
2021/06/29 09:07:19;;;;;;;7.27;2.17;;;24.50;99.90;;;;;;5052534;28;20500;-65
2021/06/29 09:09:53;;;;;;;3.30;2.13;;;24.60;99.90;;;;;;5052648;28;20477;-67
2021/06/29 09:12:46;;;;;;;4.50;2.30;;;24.70;99.90;;;;;;5053861;28;20427;-66
2021/06/29 09:15:38;;;;;;;4.80;1.90;;;24.70;99.90;;;;;;5053451;28;20494;-66
2021/06/29 09:18:20;;;;;;;5.77;2.10;;;24.90;99.90;;;;;;5038412;28;20460;-65
2021/06/29 09:20:55;;;;;;;5.37;2.57;;;25.10;99.90;;;;;;5052323;28;20502;-63
2021/06/29 09:23:26;;;;;;;3.30;1.90;;;25.10;99.90;;;;;;5052763;28;21083;-64
2021/06/29 09:25:57;;;;;;;4.60;2.20;;;25.10;99.90;;;;;;5052876;28;20435;-65
2021/06/29 09:28:26;;;;;;;2.60;1.90;;;25.20;99.90;;;;;;5052968;28;20450;-63
2021/06/29 09:30:54;;;;;;;2.90;1.90;;;25.40;99.90;;;;;;5052409;28;20539;-64
2021/06/29 09:33:22;;;;;;;3.47;2.20;;;25.60;99.90;;;;;;5052889;28;20526;-63
2021/06/29 09:35:53;;;;;;;4.00;2.00;;;25.40;99.90;;;;;;5052749;28;20450;-64
2021/06/29 09:38:22;;;;;;;3.57;2.00;;;25.80;99.90;;;;;;5052890;28;20466;-64
2021/06/29 09:40:58;;;;;;;3.27;2.07;;;26.30;99.90;;;;;;5051841;28;20479;-65
2021/06/29 09:43:27;;;;;;;3.17;2.00;;;26.60;99.90;;;;;;5052742;28;20522;-63
2021/06/29 09:45:56;;;;;;;5.00;3.17;;;26.50;99.90;;;;;;5052507;28;20450;-64
2021/06/29 09:48:32;;;;;;;3.67;1.73;;;26.90;99.90;;;;;;5052706;28;20452;-65
2021/06/29 09:51:05;;;;;;;3.63;1.70;;;27.20;99.90;;;;;;5051719;28;20498;-64
2021/06/29 09:53:36;;;;;;;3.40;2.13;;;26.90;99.90;;;;;;5052753;28;20515;-65
2021/06/29 09:56:05;;;;;;;3.87;2.53;;;26.50;99.90;;;;;;5052130;28;20452;-65
2021/06/29 09:58:34;;;;;;;2.77;1.90;;;26.40;99.90;;;;;;5052673;28;20554;-65
2021/06/29 10:01:02;;;;;;;3.37;1.70;;;26.60;99.90;;;;;;5051484;28;21234;-63
2021/06/29 10:03:32;;;;;;;3.67;2.10;;;26.70;99.90;;;;;;5052519;28;20476;-65
2021/06/29 10:06:02;;;;;;;2.87;1.90;;;26.60;99.90;;;;;;5051888;28;20484;-66
2021/06/29 10:08:32;;;;;;;2.50;1.80;;;26.60;99.90;;;;;;5052165;28;20945;-63
2021/06/29 10:11:19;;;;;;;2.80;1.73;;;26.50;99.90;;;;;;5051420;28;20555;-66
2021/06/29 10:13:50;;;;;;;2.97;1.73;;;26.40;99.90;;;;;;5052109;28;20808;-65
2021/06/29 10:16:21;;;;;;;3.30;1.87;;;26.40;99.90;;;;;;5051526;28;20949;-63
2021/06/29 10:18:51;;;;;;;2.93;1.93;;;26.70;99.90;;;;;;5051181;28;20825;-63
2021/06/29 10:21:24;;;;;;;2.93;1.80;;;26.70;99.90;;;;;;5051220;28;20885;-63
2021/06/29 10:23:53;;;;;;;2.30;1.60;;;27.20;99.90;;;;;;5051656;28;20570;-63
2021/06/29 10:26:20;;;;;;;4.27;1.60;;;27.70;99.90;;;;;;5051588;28;20859;-65
2021/06/29 10:28:49;;;;;;;3.10;1.67;;;27.90;99.90;;;;;;5051841;28;20454;-63
2021/06/29 10:31:20;;;;;;;3.33;1.90;;;28.60;99.90;;;;;;5051113;28;20941;-62
2021/06/29 10:33:47;;;;;;;3.33;1.80;;;29.20;99.90;;;;;;5052044;28;20475;-63
2021/06/29 10:36:15;;;;;;;3.33;1.83;;;29.30;99.90;;;;;;5051621;28;20487;-64
2021/06/29 10:38:43;;;;;;;3.20;1.57;;;29.40;99.90;;;;;;5051952;28;20454;-66
2021/06/29 10:41:11;;;;;;;3.20;1.77;;;29.40;99.90;;;;;;5050350;28;20489;-62
2021/06/29 10:43:41;;;;;;;3.43;2.13;;;29.60;97.40;;;;;;5051722;28;20487;-63
2021/06/29 10:46:34;;;;;;;4.43;2.20;;;30.50;98.50;;;;;;5051488;28;20809;-64
2021/06/29 10:49:29;;;;;;;3.53;2.10;;;31.00;94.50;;;;;;5051196;28;20452;-63
2021/06/29 10:51:57;;;;;;;3.37;1.53;;;30.50;93.70;;;;;;5051463;28;20498;-64
2021/06/29 10:54:46;;;;;;;3.20;1.80;;;30.90;98.90;;;;;;5051705;28;20443;-63
2021/06/29 10:57:16;;;;;;;4.10;1.60;;;31.40;97.70;;;;;;5051350;28;20448;-64
2021/06/29 10:59:47;;;;;;;2.80;1.83;;;31.90;94.70;;;;;;5050610;28;20475;-64
2021/06/29 11:02:16;;;;;;;4.30;1.67;;;32.50;93.80;;;;;;5051393;28;20452;-64
2021/06/29 11:04:55;;;;;;;4.40;1.80;;;32.70;91.50;;;;;;5051277;28;21050;-65
2021/06/29 11:07:43;;;;;;;3.93;1.70;;;32.00;91.90;;;;;;5050692;28;20467;-62
2021/06/29 11:10:14;;;;;;;3.20;1.50;;;31.80;93.10;;;;;;5050245;28;20559;-64
2021/06/29 11:12:50;;;;;;;3.60;1.90;;;32.20;91.10;;;;;;5051014;28;20944;-64
2021/06/29 11:15:18;;;;;;;3.30;2.00;;;32.50;91.30;;;;;;5044469;28;20440;-63
2021/06/29 11:17:54;;;;;;;2.77;1.40;;;32.70;85.60;;;;;;5047827;28;20452;-63
2021/06/29 11:20:22;;;;;;;3.00;1.63;;;31.70;88.80;;;;;;5048863;28;20499;-63
2021/06/29 11:22:55;;;;;;;4.23;2.13;;;31.90;87.40;;;;;;5050007;28;20455;-64
2021/06/29 11:25:45;;;;;;;3.90;1.97;;;32.20;91.40;;;;;;5049942;28;20483;-66
2021/06/29 11:28:16;;;;;;;2.40;1.80;;;32.10;87.50;;;;;;5048975;28;20523;-64
2021/06/29 11:31:03;;;;;;;5.03;1.80;;;31.70;91.50;;;;;;5048986;28;20608;-64
2021/06/29 11:33:35;;;;;;;3.00;1.53;;;31.30;92.90;;;;;;5049625;28;20929;-63
2021/06/29 11:36:02;;;;;;;2.90;1.60;;;30.30;89.30;;;;;;5049247;28;20480;-63
2021/06/29 11:38:34;;;;;;;3.17;2.20;;;29.30;92.20;;;;;;5049370;28;20454;-64
2021/06/29 11:41:31;;;;;;;4.63;2.10;;;28.40;93.30;;;;;;5048521;28;20479;-65
2021/06/29 11:44:19;;;;;;;3.33;2.30;;;27.90;96.20;;;;;;5049513;28;20506;-63
2021/06/29 11:46:52;;;;;;;3.50;1.97;;;27.80;98.60;;;;;;5048981;28;20484;-63
2021/06/29 11:49:26;;;;;;;2.70;1.80;;;28.10;98.20;;;;;;5048460;28;20487;-63
2021/06/29 11:51:56;;;;;;;3.00;1.87;;;28.60;95.40;;;;;;5049691;28;20450;-63
2021/06/29 11:54:28;;;;;;;2.90;2.20;;;28.20;95.20;;;;;;5049127;28;20450;-64
2021/06/29 11:56:58;;;;;;;2.50;1.67;;;28.70;99.20;;;;;;5049139;28;20559;-64
2021/06/29 11:59:26;;;;;;;4.10;1.80;;;29.10;96.80;;;;;;5048170;28;20985;-64
2021/06/29 12:02:03;;;;;;;3.30;1.77;;;30.10;96.00;;;;;;5049255;28;20534;-61
2021/06/29 12:04:30;;;;;;;3.63;1.80;;;30.80;94.70;;;;;;5048423;28;21040;-65
2021/06/29 12:07:02;;;;;;;4.17;1.90;;;31.30;93.60;;;;;;5048684;28;20851;-63
2021/06/29 12:09:30;;;;;;;2.50;1.70;;;31.50;91.60;;;;;;5048246;28;20546;-65
2021/06/29 12:12:21;;;;;;;2.90;1.40;;;31.90;86.60;;;;;;5048839;28;20451;-64
2021/06/29 12:14:57;;;;;;;2.53;1.60;;;32.10;87.50;;;;;;5048927;28;21129;-65
2021/06/29 12:17:24;;;;;;;2.67;1.77;;;32.10;85.90;;;;;;5048510;28;20489;-63
2021/06/29 12:19:57;;;;;;;2.43;1.70;;;32.70;87.60;;;;;;5047970;28;20547;-64
2021/06/29 12:22:30;;;;;;;2.80;1.67;;;33.20;82.60;;;;;;5048619;28;20839;-63
2021/06/29 12:24:57;;;;;;;32.83;12.40;;;33.00;87.40;;;;;;5048922;28;20488;-63
2021/06/29 12:27:26;;;;;;;4.37;2.30;;;32.80;88.30;;;;;;5048641;28;20451;-63
2021/06/29 12:29:53;;;;;;;6.83;2.80;;;32.60;87.40;;;;;;5047953;28;20554;-63
2021/06/29 12:32:23;;;;;;;22.43;7.73;;;32.80;90.10;;;;;;5049282;28;20455;-64
2021/06/29 12:34:50;;;;;;;3.10;1.70;;;32.80;85.30;;;;;;5049100;28;20456;-63
2021/06/29 12:37:18;;;;;;;5.93;1.73;;;32.30;82.70;;;;;;5049689;28;20535;-66
2021/06/29 12:39:45;;;;;;;9.23;3.60;;;32.10;87.20;;;;;;5048503;28;20507;-64
2021/06/29 12:42:14;;;;;;;5.03;1.60;;;32.10;89.70;;;;;;5049754;28;20487;-64
2021/06/29 12:44:43;;;;;;;2.40;1.50;;;31.50;90.60;;;;;;5049498;28;20476;-65
2021/06/29 12:47:14;;;;;;;3.20;1.67;;;31.40;90.30;;;;;;5049580;28;20558;-65
2021/06/29 12:49:42;;;;;;;2.97;2.27;;;31.00;88.40;;;;;;5048524;28;20576;-63